createdAt,value
2018-01-10T00:01:12.758Z,97589
2018-01-10T00:03:41.404Z,97594
2018-01-10T00:06:10.078Z,97592
2018-01-10T00:08:38.937Z,97581
2018-01-10T00:11:07.531Z,97570
2018-01-10T00:13:36.129Z,97565
2018-01-10T00:16:04.796Z,97569
2018-01-10T00:18:33.526Z,97577
2018-01-10T00:21:02.157Z,97573
2018-01-10T00:23:30.805Z,97578
2018-01-10T00:25:59.392Z,97572
2018-01-10T00:28:28.014Z,97562
2018-01-10T00:30:56.623Z,97561
2018-01-10T00:33:25.267Z,97566
2018-01-10T00:35:53.919Z,97571
2018-01-10T00:38:22.539Z,97581
2018-01-10T00:40:51.149Z,97582
2018-01-10T00:43:19.757Z,97575
2018-01-10T00:45:48.357Z,97573
2018-01-10T00:48:16.966Z,97579
2018-01-10T00:50:45.585Z,97576
2018-01-10T00:53:14.189Z,97582
2018-01-10T00:55:42.785Z,97584
2018-01-10T00:58:11.389Z,97582
2018-01-10T01:00:40.135Z,97578
2018-01-10T01:03:08.720Z,97575
2018-01-10T01:05:38.308Z,97571
2018-01-10T01:08:06.946Z,97563
2018-01-10T01:10:35.539Z,97556
2018-01-10T01:13:04.169Z,97544
2018-01-10T01:15:32.765Z,97540
2018-01-10T01:18:02.000Z,97540
2018-01-10T01:20:30.596Z,97536
2018-01-10T01:22:59.934Z,97531
2018-01-10T01:25:28.545Z,97520
2018-01-10T01:27:57.174Z,97511
2018-01-10T01:30:25.810Z,97510
2018-01-10T01:32:54.441Z,97510
2018-01-10T01:35:23.072Z,97506
2018-01-10T01:37:51.693Z,97495
2018-01-10T01:40:20.290Z,97488
2018-01-10T01:42:48.939Z,97480
2018-01-10T01:45:17.553Z,97478
2018-01-10T01:47:46.167Z,97472
2018-01-10T01:50:14.843Z,97468
2018-01-10T01:52:43.460Z,97469
2018-01-10T01:55:12.039Z,97461
2018-01-10T01:57:40.743Z,97450
2018-01-10T02:00:09.350Z,97448
2018-01-10T02:02:37.949Z,97449
2018-01-10T02:05:06.565Z,97448
2018-01-10T02:07:35.168Z,97459
2018-01-10T02:10:03.781Z,97464
2018-01-10T02:12:32.396Z,97464
2018-01-10T02:15:01.006Z,97467
2018-01-10T02:17:29.300Z,97458
2018-01-10T02:19:57.641Z,97458
2018-01-10T02:22:26.264Z,97451
2018-01-10T02:24:54.721Z,97448
2018-01-10T02:27:23.325Z,97442
2018-01-10T02:29:51.933Z,97435
2018-01-10T02:32:20.526Z,97438
2018-01-10T02:34:49.148Z,97431
2018-01-10T02:37:17.752Z,97426
2018-01-10T02:39:46.385Z,97424
2018-01-10T02:42:26.982Z,97428
2018-01-10T02:44:55.632Z,97428
2018-01-10T02:47:24.232Z,97430
2018-01-10T02:49:52.814Z,97429
2018-01-10T02:52:21.418Z,97423
2018-01-10T02:54:50.038Z,97427
2018-01-10T02:57:18.662Z,97415
2018-01-10T02:59:47.273Z,97412
2018-01-10T03:02:15.871Z,97402
2018-01-10T03:04:44.551Z,97407
2018-01-10T03:07:13.162Z,97414
2018-01-10T03:09:41.753Z,97410
2018-01-10T03:12:10.386Z,97409
2018-01-10T03:14:39.001Z,97414
2018-01-10T03:17:07.585Z,97417
2018-01-10T03:19:36.204Z,97419
2018-01-10T03:22:04.835Z,97421
2018-01-10T03:24:33.497Z,97428
2018-01-10T03:27:02.096Z,97427
2018-01-10T03:29:30.721Z,97428
2018-01-10T03:31:59.397Z,97428
2018-01-10T03:34:27.994Z,97428
2018-01-10T03:36:56.592Z,97426
2018-01-10T03:39:25.208Z,97432
2018-01-10T03:41:53.813Z,97423
2018-01-10T03:44:22.161Z,97425
2018-01-10T03:46:50.464Z,97413
2018-01-10T03:49:18.793Z,97409
2018-01-10T03:51:47.102Z,97406
2018-01-10T03:54:15.485Z,97398
2018-01-10T03:56:43.797Z,97396
2018-01-10T03:59:12.083Z,97381
2018-01-10T04:01:40.377Z,97382
2018-01-10T04:04:08.706Z,97372
2018-01-10T04:06:37.009Z,97362
2018-01-10T04:09:05.340Z,97354
2018-01-10T04:11:33.666Z,97351
2018-01-10T04:14:02.289Z,97346
2018-01-10T04:16:30.899Z,97339
2018-01-10T04:18:59.550Z,97347
2018-01-10T04:21:28.166Z,97343
2018-01-10T04:23:56.764Z,97343
2018-01-10T04:26:25.418Z,97339
2018-01-10T04:28:54.527Z,97334
2018-01-10T04:31:23.112Z,97333
2018-01-10T04:33:51.725Z,97329
2018-01-10T04:36:21.221Z,97329
2018-01-10T04:38:49.808Z,97328
2018-01-10T04:41:18.519Z,97330
2018-01-10T04:43:47.146Z,97334
2018-01-10T04:46:15.725Z,97334
2018-01-10T04:48:44.354Z,97333
2018-01-10T04:51:12.974Z,97331
2018-01-10T04:53:41.643Z,97326
2018-01-10T04:56:10.266Z,97331
2018-01-10T04:58:38.978Z,97330
2018-01-10T05:01:07.601Z,97326
2018-01-10T05:03:36.183Z,97329
2018-01-10T05:06:05.678Z,97330
2018-01-10T05:08:34.299Z,97328
2018-01-10T05:11:02.885Z,97325
2018-01-10T05:13:31.494Z,97318
2018-01-10T05:16:00.135Z,97316
2018-01-10T05:18:28.734Z,97309
2018-01-10T05:20:57.333Z,97311
2018-01-10T05:23:25.949Z,97317
2018-01-10T05:25:54.622Z,97308
2018-01-10T05:28:23.211Z,97308
2018-01-10T05:30:51.797Z,97306
2018-01-10T05:33:20.431Z,97304
2018-01-10T05:35:49.013Z,97300
2018-01-10T05:38:17.596Z,97299
2018-01-10T05:40:46.219Z,97290
2018-01-10T05:43:14.820Z,97292
2018-01-10T05:45:43.637Z,97291
2018-01-10T05:48:12.496Z,97283
2018-01-10T05:50:41.079Z,97276
2018-01-10T05:53:09.916Z,97276
2018-01-10T05:55:38.524Z,97277
2018-01-10T05:58:07.147Z,97278
2018-01-10T06:00:35.749Z,97275
2018-01-10T06:03:04.364Z,97280
2018-01-10T06:05:32.957Z,97281
2018-01-10T06:08:01.567Z,97274
2018-01-10T06:10:30.189Z,97271
2018-01-10T06:12:58.879Z,97272
2018-01-10T06:15:27.487Z,97285
2018-01-10T06:17:56.110Z,97284
2018-01-10T06:20:24.705Z,97282
2018-01-10T06:22:54.773Z,97283
2018-01-10T06:25:23.357Z,97286
2018-01-10T06:27:52.069Z,97278
2018-01-10T06:30:20.678Z,97279
2018-01-10T06:32:49.285Z,97276
2018-01-10T06:35:17.927Z,97270
2018-01-10T06:37:46.588Z,97268
2018-01-10T06:40:15.190Z,97267
2018-01-10T06:42:43.794Z,97265
2018-01-10T06:45:12.392Z,97260
2018-01-10T06:47:40.997Z,97260
2018-01-10T06:50:09.627Z,97251
2018-01-10T06:52:38.230Z,97250
2018-01-10T06:55:06.828Z,97246
2018-01-10T06:57:35.482Z,97239
2018-01-10T07:00:04.189Z,97237
2018-01-10T07:02:32.806Z,97233
2018-01-10T07:05:01.422Z,97242
2018-01-10T07:07:30.029Z,97230
2018-01-10T07:09:58.602Z,97220
2018-01-10T07:12:27.219Z,97217
2018-01-10T07:14:55.834Z,97210
2018-01-10T07:17:24.430Z,97219
2018-01-10T07:19:53.045Z,97227
2018-01-10T07:22:21.627Z,97231
2018-01-10T07:24:50.233Z,97247
2018-01-10T07:27:18.830Z,97253
2018-01-10T07:29:47.458Z,97256
2018-01-10T07:32:16.043Z,97262
2018-01-10T07:34:44.657Z,97261
2018-01-10T07:37:13.249Z,97265
2018-01-10T07:39:41.850Z,97260
2018-01-10T07:42:10.515Z,97258
2018-01-10T07:44:39.113Z,97262
2018-01-10T07:47:07.723Z,97259
2018-01-10T07:49:37.154Z,97262
2018-01-10T07:52:05.776Z,97265
2018-01-10T07:54:34.388Z,97262
2018-01-10T07:57:04.088Z,97255
2018-01-10T07:59:32.897Z,97254
2018-01-10T08:02:01.497Z,97249
2018-01-10T08:04:30.157Z,97249
2018-01-10T08:06:58.749Z,97244
2018-01-10T08:09:27.344Z,97237
2018-01-10T08:11:55.954Z,97233
2018-01-10T08:14:24.535Z,97229
2018-01-10T08:16:53.200Z,97226
2018-01-10T08:19:21.835Z,97210
2018-01-10T08:21:50.473Z,97222
2018-01-10T08:24:19.096Z,97222
2018-01-10T08:26:47.714Z,97221
2018-01-10T08:29:16.301Z,97221
2018-01-10T08:31:45.009Z,97219
2018-01-10T08:34:13.635Z,97220
2018-01-10T08:36:42.276Z,97224
2018-01-10T08:39:10.869Z,97224
2018-01-10T08:41:39.492Z,97228
2018-01-10T08:44:08.114Z,97232
2018-01-10T08:46:36.701Z,97234
2018-01-10T08:49:05.305Z,97230
2018-01-10T08:51:33.920Z,97230
2018-01-10T08:54:02.513Z,97232
2018-01-10T08:56:31.140Z,97227
2018-01-10T08:58:59.741Z,97224
2018-01-10T09:01:28.328Z,97223
2018-01-10T09:03:56.954Z,97220
2018-01-10T09:06:25.567Z,97215
2018-01-10T09:08:54.156Z,97204
2018-01-10T09:11:22.807Z,97206
2018-01-10T09:13:51.393Z,97205
2018-01-10T09:16:20.001Z,97206
2018-01-10T09:18:48.620Z,97200
2018-01-10T09:21:17.231Z,97195
2018-01-10T09:23:45.824Z,97193
2018-01-10T09:26:14.446Z,97192
2018-01-10T09:28:43.046Z,97196
2018-01-10T09:31:11.680Z,97195
2018-01-10T09:33:40.322Z,97190
2018-01-10T09:36:09.544Z,97187
2018-01-10T09:38:38.138Z,97194
2018-01-10T09:41:06.733Z,97197
2018-01-10T09:43:35.113Z,97194
2018-01-10T09:46:03.753Z,97190
2018-01-10T09:48:32.456Z,97189
2018-01-10T09:51:01.054Z,97184
2018-01-10T09:53:29.662Z,97185
2018-01-10T09:55:58.268Z,97193
2018-01-10T09:58:26.887Z,97185
2018-01-10T10:00:55.502Z,97175
2018-01-10T10:03:24.109Z,97175
2018-01-10T10:05:52.737Z,97176
2018-01-10T10:08:21.380Z,97169
2018-01-10T10:10:49.972Z,97165
2018-01-10T10:13:18.709Z,97162
2018-01-10T10:15:47.340Z,97160
2018-01-10T10:18:15.973Z,97153
2018-01-10T10:20:44.741Z,97148
2018-01-10T10:23:13.333Z,97142
2018-01-10T10:25:42.079Z,97138
2018-01-10T10:28:10.690Z,97129
2018-01-10T10:30:39.320Z,97121
2018-01-10T10:33:07.952Z,97118
2018-01-10T10:35:36.585Z,97119
2018-01-10T10:38:05.200Z,97116
2018-01-10T10:40:33.520Z,97107
2018-01-10T10:43:01.850Z,97109
2018-01-10T10:45:30.164Z,97108
2018-01-10T10:47:58.471Z,97106
2018-01-10T10:50:26.776Z,97102
2018-01-10T10:52:55.111Z,97096
2018-01-10T10:55:23.408Z,97092
2018-01-10T10:57:51.707Z,97092
2018-01-10T11:00:20.068Z,97076
2018-01-10T11:02:48.357Z,97065
2018-01-10T11:05:16.691Z,97065
2018-01-10T11:07:45.013Z,97075
2018-01-10T11:10:13.320Z,97075
2018-01-10T11:12:41.638Z,97071
2018-01-10T11:15:09.961Z,97066
2018-01-10T11:17:38.283Z,97063
2018-01-10T11:20:06.660Z,97063
2018-01-10T11:22:35.001Z,97069
2018-01-10T11:25:04.195Z,97063
2018-01-10T11:27:32.508Z,97058
2018-01-10T11:30:00.824Z,97048
2018-01-10T11:32:29.265Z,97055
2018-01-10T11:34:57.569Z,97054
2018-01-10T11:37:25.851Z,97052
2018-01-10T11:39:54.278Z,97044
2018-01-10T11:42:22.598Z,97047
2018-01-10T11:44:51.724Z,97049
2018-01-10T11:47:20.115Z,97046
2018-01-10T11:49:48.502Z,97041
2018-01-10T11:52:16.798Z,97044
2018-01-10T11:54:45.143Z,97038
2018-01-10T11:57:13.457Z,97031
2018-01-10T11:59:41.779Z,97030
2018-01-10T12:02:10.324Z,97026
2018-01-10T12:04:38.622Z,97020
2018-01-10T12:07:06.949Z,97012
2018-01-10T12:09:35.240Z,97008
2018-01-10T12:12:03.557Z,97004
2018-01-10T12:14:31.964Z,97003
2018-01-10T12:17:00.265Z,97004
2018-01-10T12:19:28.594Z,96999
2018-01-10T12:21:56.897Z,97006
2018-01-10T12:24:25.188Z,97002
2018-01-10T12:26:53.497Z,96998
2018-01-10T12:29:21.822Z,97001
2018-01-10T12:31:50.197Z,96999
2018-01-10T12:34:19.048Z,96998
2018-01-10T12:36:47.352Z,97004
2018-01-10T12:39:15.689Z,96997
2018-01-10T12:41:44.058Z,96998
2018-01-10T12:44:12.353Z,96992
2018-01-10T12:46:40.748Z,96993
2018-01-10T12:49:09.049Z,96996
2018-01-10T12:51:37.411Z,96995
2018-01-10T12:54:05.704Z,96991
2018-01-10T12:56:34.009Z,96996
2018-01-10T12:59:02.409Z,96995
2018-01-10T13:01:30.731Z,97004
2018-01-10T13:03:59.050Z,97000
2018-01-10T13:06:27.388Z,96992
2018-01-10T13:08:55.796Z,96998
2018-01-10T13:11:24.077Z,96999
2018-01-10T13:13:52.402Z,96999
2018-01-10T13:16:20.701Z,96992
2018-01-10T13:18:49.067Z,96992
2018-01-10T13:21:17.459Z,96988
2018-01-10T13:23:45.807Z,96985
2018-01-10T13:26:14.147Z,96980
2018-01-10T13:28:42.438Z,96980
2018-01-10T13:31:10.792Z,96982
2018-01-10T13:33:39.143Z,96978
2018-01-10T13:36:07.475Z,96981
2018-01-10T13:38:35.767Z,96982
2018-01-10T13:41:04.320Z,96975
2018-01-10T13:43:32.621Z,96985
2018-01-10T13:46:01.004Z,96985
2018-01-10T13:48:29.365Z,96988
2018-01-10T13:50:57.660Z,96984
2018-01-10T13:53:25.977Z,96990
2018-01-10T13:55:54.306Z,96988
2018-01-10T13:58:22.604Z,96986
2018-01-10T14:00:50.927Z,96982
2018-01-10T14:03:19.273Z,96981
2018-01-10T14:05:47.563Z,96985
2018-01-10T14:08:16.146Z,96980
2018-01-10T14:10:44.464Z,96978
2018-01-10T14:13:12.791Z,96979
2018-01-10T14:15:41.134Z,96981
2018-01-10T14:18:09.456Z,96980
2018-01-10T14:20:37.775Z,96985
2018-01-10T14:23:06.125Z,96989
2018-01-10T14:25:34.469Z,96991
2018-01-10T14:28:02.772Z,96985
2018-01-10T14:30:31.080Z,96980
2018-01-10T14:33:00.336Z,96986
2018-01-10T14:35:28.647Z,96983
2018-01-10T14:37:56.965Z,96982
2018-01-10T14:40:25.387Z,96979
2018-01-10T14:42:53.968Z,96979
2018-01-10T14:45:22.597Z,96980
2018-01-10T14:47:51.218Z,96982
2018-01-10T14:50:19.553Z,96981
2018-01-10T14:52:47.945Z,96978
2018-01-10T14:55:16.284Z,96981
2018-01-10T14:57:44.586Z,96984
2018-01-10T15:00:13.028Z,96987
2018-01-10T15:02:41.314Z,96983
2018-01-10T15:05:09.644Z,96990
2018-01-10T15:07:38.274Z,96983
2018-01-10T15:10:06.836Z,96980
2018-01-10T15:12:35.128Z,96982
2018-01-10T15:15:03.756Z,96982
2018-01-10T15:17:32.349Z,96984
2018-01-10T15:20:00.992Z,96988
2018-01-10T15:22:29.607Z,96987
2018-01-10T15:24:58.197Z,96991
2018-01-10T15:27:26.831Z,96990
2018-01-10T15:29:55.468Z,96994
2018-01-10T15:32:24.057Z,96988
2018-01-10T15:34:52.700Z,96990
2018-01-10T15:37:21.314Z,96997
2018-01-10T15:39:49.929Z,96990
2018-01-10T15:42:18.554Z,96992
2018-01-10T15:44:47.149Z,97003
2018-01-10T15:47:15.743Z,97003
2018-01-10T15:49:45.321Z,96999
2018-01-10T15:52:13.904Z,96998
2018-01-10T15:54:42.534Z,96997
2018-01-10T15:57:11.149Z,97000
2018-01-10T15:59:39.753Z,97007
2018-01-10T16:02:08.432Z,97004
2018-01-10T16:04:37.981Z,97005
2018-01-10T16:07:07.386Z,97005
2018-01-10T16:09:36.324Z,97010
2018-01-10T16:12:05.842Z,97019
2018-01-10T16:14:34.453Z,97020
2018-01-10T16:17:03.070Z,97018
2018-01-10T16:19:31.929Z,97017
2018-01-10T16:22:00.558Z,97019
2018-01-10T16:24:29.184Z,97021
2018-01-10T16:26:57.792Z,97021
2018-01-10T16:29:26.434Z,97026
2018-01-10T16:31:55.037Z,97029
2018-01-10T16:34:23.658Z,97027
2018-01-10T16:36:52.289Z,97027
2018-01-10T16:39:20.917Z,97028
2018-01-10T16:41:49.610Z,97026
2018-01-10T16:44:18.204Z,97023
2018-01-10T16:46:46.834Z,97028
2018-01-10T16:49:15.447Z,97030
2018-01-10T16:51:44.063Z,97022
2018-01-10T16:54:12.696Z,97020
2018-01-10T16:56:41.370Z,97022
2018-01-10T16:59:09.685Z,97027
2018-01-10T17:01:37.988Z,97028
2018-01-10T17:04:06.622Z,97029
2018-01-10T17:06:36.173Z,97026
2018-01-10T17:09:04.793Z,97030
2018-01-10T17:11:33.626Z,97028
2018-01-10T17:14:02.253Z,97029
2018-01-10T17:16:30.876Z,97033
2018-01-10T17:18:59.560Z,97035
2018-01-10T17:21:28.173Z,97031
2018-01-10T17:23:56.771Z,97033
2018-01-10T17:26:25.429Z,97035
2018-01-10T17:28:54.009Z,97046
2018-01-10T17:31:22.633Z,97042
2018-01-10T17:33:51.255Z,97044
2018-01-10T17:36:19.905Z,97046
2018-01-10T17:38:48.521Z,97048
2018-01-10T17:41:17.141Z,97054
2018-01-10T17:43:45.754Z,97052
2018-01-10T17:46:14.366Z,97052
2018-01-10T17:48:43.014Z,97054
2018-01-10T17:51:11.445Z,97057
2018-01-10T17:53:40.061Z,97059
2018-01-10T17:56:08.678Z,97060
2018-01-10T17:58:37.269Z,97057
2018-01-10T18:01:05.905Z,97055
2018-01-10T18:03:35.191Z,97057
2018-01-10T18:06:03.869Z,97058
2018-01-10T18:08:32.500Z,97055
2018-01-10T18:11:01.116Z,97058
2018-01-10T18:13:29.834Z,97064
2018-01-10T18:15:58.469Z,97066
2018-01-10T18:18:27.713Z,97066
2018-01-10T18:20:56.341Z,97065
2018-01-10T18:23:25.965Z,97064
2018-01-10T18:25:54.269Z,97060
2018-01-10T18:28:22.886Z,97062
2018-01-10T18:30:51.562Z,97058
2018-01-10T18:33:20.152Z,97064
2018-01-10T18:35:48.811Z,97062
2018-01-10T18:38:17.476Z,97060
2018-01-10T18:40:46.088Z,97057
2018-01-10T18:43:15.626Z,97053
2018-01-10T18:45:44.498Z,97051
2018-01-10T18:48:13.125Z,97055
2018-01-10T18:50:41.734Z,97055
2018-01-10T18:53:10.394Z,97054
2018-01-10T18:55:39.045Z,97057
2018-01-10T18:58:08.578Z,97055
2018-01-10T19:00:37.209Z,97059
2018-01-10T19:03:05.799Z,97060
2018-01-10T19:05:34.485Z,97059
2018-01-10T19:08:03.096Z,97059
2018-01-10T19:10:31.800Z,97051
2018-01-10T19:13:00.422Z,97059
2018-01-10T19:15:29.038Z,97048
2018-01-10T19:17:57.680Z,97052
2018-01-10T19:20:26.949Z,97061
2018-01-10T19:22:55.572Z,97059
2018-01-10T19:25:24.203Z,97056
2018-01-10T19:27:52.852Z,97058
2018-01-10T19:30:21.480Z,97051
2018-01-10T19:32:51.759Z,97056
2018-01-10T19:35:20.388Z,97055
2018-01-10T19:37:49.032Z,97055
2018-01-10T19:40:17.626Z,97055
2018-01-10T19:42:46.357Z,97054
2018-01-10T19:45:15.024Z,97052
2018-01-10T19:47:43.646Z,97053
2018-01-10T19:50:12.269Z,97056
2018-01-10T19:52:41.154Z,97057
2018-01-10T19:55:09.763Z,97059
2018-01-10T19:57:38.385Z,97061
2018-01-10T20:00:06.984Z,97055
2018-01-10T20:02:35.595Z,97056
2018-01-10T20:05:04.253Z,97053
2018-01-10T20:07:32.890Z,97051
2018-01-10T20:10:01.521Z,97052
2018-01-10T20:12:30.109Z,97054
2018-01-10T20:14:58.699Z,97052
2018-01-10T20:30:14.678Z,97045
2018-01-10T20:32:43.301Z,97040
2018-01-10T20:35:11.911Z,97042
2018-01-10T20:37:40.634Z,97044
2018-01-10T20:40:09.235Z,97051
2018-01-10T20:42:37.870Z,97045
2018-01-10T20:45:06.484Z,97045
2018-01-10T20:47:35.078Z,97047
2018-01-10T20:50:03.699Z,97052
2018-01-10T20:52:32.349Z,97052
2018-01-10T20:55:00.983Z,97049
2018-01-10T20:57:29.617Z,97050
2018-01-10T20:59:59.017Z,97049
2018-01-10T21:02:27.650Z,97049
2018-01-10T21:04:56.288Z,97049
2018-01-10T21:07:24.918Z,97049
2018-01-10T21:09:53.599Z,97052
2018-01-10T21:12:22.214Z,97052
2018-01-10T21:14:50.827Z,97050
2018-01-10T21:17:19.458Z,97052
2018-01-10T21:19:48.120Z,97054
2018-01-10T21:22:16.717Z,97056
2018-01-10T21:24:45.349Z,97049
2018-01-10T21:27:14.001Z,97054
2018-01-10T21:29:42.665Z,97045
2018-01-10T21:32:11.297Z,97046
2018-01-10T21:34:39.946Z,97049
2018-01-10T21:37:08.551Z,97044
2018-01-10T21:39:37.179Z,97039
2018-01-10T21:42:05.829Z,97041
2018-01-10T21:44:34.428Z,97043
2018-01-10T21:47:03.056Z,97049
2018-01-10T21:49:31.725Z,97048
2018-01-10T21:52:00.340Z,97049
2018-01-10T21:54:28.924Z,97041
2018-01-10T21:56:57.556Z,97043
2018-01-10T21:59:26.162Z,97044
2018-01-10T22:01:54.815Z,97037
2018-01-10T22:04:23.452Z,97044
2018-01-10T22:06:52.072Z,97040
2018-01-10T22:09:20.704Z,97042
2018-01-10T22:11:49.368Z,97032
2018-01-10T22:14:18.010Z,97034
2018-01-10T22:16:46.643Z,97033
2018-01-10T22:19:15.277Z,97033
2018-01-10T22:21:43.869Z,97029
2018-01-10T22:24:13.308Z,97030
2018-01-10T22:26:41.938Z,97022
2018-01-10T22:29:10.568Z,97025
2018-01-10T22:31:39.192Z,97025
2018-01-10T22:34:07.809Z,97025
2018-01-10T22:36:36.425Z,97031
2018-01-10T22:39:05.085Z,97029
2018-01-10T22:41:33.711Z,97029
2018-01-10T22:44:02.314Z,97031
2018-01-10T22:46:30.949Z,97026
2018-01-10T22:48:59.538Z,97026
2018-01-10T22:51:28.184Z,97020
2018-01-10T22:53:56.822Z,97019
2018-01-10T22:56:25.418Z,97021
2018-01-10T22:58:54.036Z,97015
2018-01-10T23:01:22.669Z,97016
2018-01-10T23:03:51.324Z,97010
2018-01-10T23:06:19.948Z,97014
2018-01-10T23:08:48.601Z,97008
2018-01-10T23:11:17.227Z,97005
2018-01-10T23:13:45.826Z,97004
2018-01-10T23:16:14.464Z,97001
2018-01-10T23:18:43.106Z,97000
2018-01-10T23:21:11.711Z,97000
2018-01-10T23:23:40.323Z,97003
2018-01-10T23:26:08.954Z,97003
2018-01-10T23:28:37.567Z,97007
2018-01-10T23:31:06.150Z,97009
2018-01-10T23:33:34.525Z,97003
2018-01-10T23:36:02.861Z,97010
2018-01-10T23:38:31.411Z,97006
2018-01-10T23:41:00.048Z,97007
2018-01-10T23:43:28.673Z,97009
2018-01-10T23:45:57.284Z,97005
2018-01-10T23:48:26.001Z,97005
2018-01-10T23:50:55.674Z,96999
2018-01-10T23:53:24.264Z,96996
2018-01-10T23:55:53.599Z,96989
2018-01-10T23:58:22.204Z,96990
